| Date | Time | Temp. (oF) | Dew Point (oF) | Rel. Hum. (%) | Press. (in.) | Wind Dir. | Wind Speed (mph) | Hourly Rainfall (in.) |
|
|---|---|---|---|---|---|---|---|---|---|
| 1 | 06/08 | 00:00 | 66 | 54 | 66 | 29.99 | S | 9 | 0.00 |
| 2 | 06/07 | 23:00 | 67 | 56 | 70 | 29.99 | S | 5 | 0.00 |
| 3 | 06/07 | 22:00 | 67 | 56 | 70 | 29.98 | S | 6 | 0.00 |
| 4 | 06/07 | 21:00 | 69 | 57 | 66 | 29.98 | S | 6 | 0.00 |
| 5 | 06/07 | 20:00 | 69 | 57 | 66 | 29.99 | SSW | 7 | 0.00 |
| 6 | 06/07 | 19:00 | 70 | 56 | 63 | 29.99 | SSE | 9 | 0.00 |
| 7 | 06/07 | 18:00 | 71 | 55 | 59 | 30.00 | S | 9 | 0.00 |
| 8 | 06/07 | 17:00 | 71 | 56 | 60 | 30.01 | S | 13 | 0.00 |
| 9 | 06/07 | 16:00 | 72 | 55 | 57 | 30.02 | SSE | 12 | 0.00 |
| 10 | 06/07 | 15:00 | 72 | 57 | 60 | 30.04 | SSE | 8 | 0.00 |
| 11 | 06/07 | 14:00 | 71 | 55 | 59 | 30.05 | S | 6 | 0.00 |
| 12 | 06/07 | 13:00 | 72 | 56 | 58 | 30.06 | SSE | 5 | 0.00 |
| 13 | 06/07 | 12:00 | 73 | 57 | 58 | 30.06 | S | 6 | 0.00 |
| 14 | 06/07 | 11:00 | 71 | 53 | 55 | 30.08 | S | 10 | 0.00 |
| 15 | 06/07 | 10:00 | 70 | 55 | 60 | 30.09 | S | 7 | 0.00 |
| 16 | 06/07 | 09:00 | 66 | 54 | 67 | 30.09 | SE | 3 | 0.00 |
| 17 | 06/07 | 08:00 | 64 | 54 | 72 | 30.08 | SSE | 5 | 0.00 |
| 18 | 06/07 | 07:00 | 62 | 57 | 84 | 30.07 | SSE | 0 | 0.00 |
| 19 | 06/07 | 06:00 | 62 | 56 | 83 | 30.06 | E | 0 | 0.00 |
| 20 | 06/07 | 05:00 | 62 | 56 | 83 | 30.04 | SE | 3 | 0.00 |
| 21 | 06/07 | 04:00 | 63 | 57 | 83 | 30.03 | ESE | 3 | 0.00 |
| 22 | 06/07 | 03:00 | 62 | 56 | 82 | 30.02 | S | 4 | 0.00 |
| 23 | 06/07 | 02:00 | 60 | 50 | 72 | 30.01 | SE | 4 | 0.00 |
| 24 | 06/07 | 01:00 | 60 | 49 | 68 | 30.00 | NNE | 2 | 0.00 |